createdAt,value
2022-11-28T00:00:06.924Z,8.48
2022-11-28T00:02:39.179Z,9.23
2022-11-28T00:05:06.077Z,8.38
2022-11-28T00:07:32.693Z,8.30
2022-11-28T00:09:59.541Z,8.38
2022-11-28T00:12:26.244Z,8.60
2022-11-28T00:14:52.704Z,8.07
2022-11-28T00:17:19.150Z,8.45
2022-11-28T00:19:45.674Z,8.05
2022-11-28T00:22:12.223Z,8.73
2022-11-28T00:24:40.780Z,8.13
2022-11-28T00:27:07.555Z,7.53
2022-11-28T00:29:36.166Z,7.18
2022-11-28T00:32:03.475Z,7.72
2022-11-28T00:34:30.115Z,7.47
2022-11-28T00:36:56.767Z,7.28
2022-11-28T00:39:23.240Z,7.45
2022-11-28T00:41:49.739Z,7.18
2022-11-28T00:44:16.255Z,7.13
2022-11-28T00:46:43.506Z,6.75
2022-11-28T00:49:09.972Z,6.82
2022-11-28T00:51:36.943Z,6.97
2022-11-28T00:54:05.674Z,6.97
2022-11-28T00:56:37.905Z,6.97
2022-11-28T00:59:04.993Z,6.45
2022-11-28T01:01:35.317Z,6.28
2022-11-28T01:04:05.271Z,6.60
2022-11-28T01:06:38.607Z,5.97
2022-11-28T01:09:11.060Z,5.60
2022-11-28T01:11:39.673Z,6.55
2022-11-28T01:14:06.941Z,5.97
2022-11-28T01:16:33.527Z,6.30
2022-11-28T01:19:00.162Z,6.40
2022-11-28T01:21:27.175Z,6.00
2022-11-28T01:23:53.667Z,6.35
2022-11-28T01:26:23.687Z,6.00
2022-11-28T01:28:50.566Z,6.22
2022-11-28T01:31:19.776Z,6.28
2022-11-28T01:33:46.743Z,6.20
2022-11-28T01:36:14.220Z,5.88
2022-11-28T01:38:42.514Z,5.90
2022-11-28T01:41:09.534Z,5.72
2022-11-28T01:43:37.048Z,6.20
2022-11-28T01:46:05.054Z,6.65
2022-11-28T01:48:38.245Z,6.28
2022-11-28T01:51:08.805Z,6.90
2022-11-28T01:53:39.799Z,6.53
2022-11-28T01:56:12.698Z,6.63
2022-11-28T01:58:42.913Z,6.95
2022-11-28T02:01:10.567Z,7.00
2022-11-28T02:03:47.996Z,7.05
2022-11-28T02:06:17.566Z,6.90
2022-11-28T02:08:44.165Z,6.43
2022-11-28T02:11:38.845Z,6.50
2022-11-28T02:14:23.613Z,6.00
2022-11-28T02:17:01.232Z,6.28
2022-11-28T02:19:42.636Z,6.45
2022-11-28T02:22:47.624Z,6.88
2022-11-28T02:26:03.374Z,6.82
2022-11-28T02:28:41.531Z,6.00
2022-11-28T02:31:16.874Z,6.43
2022-11-28T02:33:51.150Z,6.70
2022-11-28T02:36:50.183Z,7.10
2022-11-28T02:39:55.082Z,6.10
2022-11-28T02:42:31.321Z,6.53
2022-11-28T02:45:23.549Z,6.70
2022-11-28T02:50:42.171Z,6.57
2022-11-28T02:53:20.084Z,6.72
2022-11-28T02:55:47.506Z,6.57
2022-11-28T02:58:14.020Z,6.72
2022-11-28T03:00:45.639Z,7.10
2022-11-28T03:03:46.215Z,6.70
2022-11-28T03:06:27.427Z,6.82
2022-11-28T03:09:22.094Z,6.93
2022-11-28T03:12:15.969Z,6.85
2022-11-28T03:14:54.123Z,7.10
2022-11-28T03:17:43.094Z,6.53
2022-11-28T03:20:14.455Z,6.40
2022-11-28T03:22:52.691Z,6.63
2022-11-28T03:25:28.766Z,6.00
2022-11-28T03:28:11.210Z,5.93
2022-11-28T03:30:48.188Z,6.03
2022-11-28T03:33:17.735Z,6.35
2022-11-28T03:35:49.816Z,6.15
2022-11-28T03:38:22.158Z,5.88
2022-11-28T03:40:53.792Z,5.80
2022-11-28T03:43:28.349Z,5.95
2022-11-28T03:46:01.645Z,6.20
2022-11-28T03:48:32.418Z,6.22
2022-11-28T03:51:05.525Z,6.13
2022-11-28T03:53:42.442Z,5.70
2022-11-28T03:56:17.574Z,6.25
2022-11-28T03:59:04.124Z,6.53
2022-11-28T04:01:33.959Z,6.45
2022-11-28T04:04:21.485Z,6.45
2022-11-28T04:07:22.267Z,6.60
2022-11-28T04:09:59.325Z,7.00
2022-11-28T04:12:50.934Z,6.40
2022-11-28T04:15:41.432Z,6.63
2022-11-28T04:18:20.006Z,6.18
2022-11-28T04:21:01.359Z,6.40
2022-11-28T04:23:30.313Z,6.18
2022-11-28T04:26:06.900Z,6.45
2022-11-28T04:28:34.674Z,7.03
2022-11-28T04:31:04.351Z,6.28
2022-11-28T04:33:35.924Z,6.32
2022-11-28T04:36:05.169Z,6.50
2022-11-28T04:38:33.375Z,6.30
2022-11-28T04:41:07.821Z,6.63
2022-11-28T04:43:39.878Z,6.45
2022-11-28T04:46:17.625Z,6.30
2022-11-28T04:48:44.555Z,6.70
2022-11-28T04:51:20.803Z,6.60
2022-11-28T04:54:01.872Z,7.28
2022-11-28T04:56:38.878Z,6.97
2022-11-28T04:59:07.453Z,7.13
2022-11-28T05:01:35.395Z,6.78
2022-11-28T05:04:02.586Z,7.03
2022-11-28T05:06:35.066Z,7.28
2022-11-28T05:09:01.827Z,7.18
2022-11-28T05:11:28.425Z,7.38
2022-11-28T05:13:55.025Z,7.70
2022-11-28T05:16:22.675Z,8.07
2022-11-28T05:18:49.566Z,7.75
2022-11-28T05:21:16.020Z,7.25
2022-11-28T05:23:44.398Z,8.10
2022-11-28T05:26:19.271Z,7.82
2022-11-28T05:28:48.145Z,7.88
2022-11-28T05:31:15.497Z,8.23
2022-11-28T05:33:42.121Z,9.13
2022-11-28T05:36:13.235Z,8.57
2022-11-28T05:38:40.647Z,8.98
2022-11-28T05:41:07.243Z,8.63
2022-11-28T05:43:34.141Z,9.07
2022-11-28T05:46:00.746Z,9.32
2022-11-28T05:48:27.236Z,9.90
2022-11-28T05:50:53.764Z,9.25
2022-11-28T05:53:20.438Z,9.77
2022-11-28T05:55:47.489Z,10.00
2022-11-28T05:58:14.518Z,10.05
2022-11-28T06:00:41.067Z,9.98
2022-11-28T06:03:07.762Z,9.80
2022-11-28T06:05:42.593Z,9.90
2022-11-28T06:08:11.940Z,9.80
2022-11-28T06:10:38.568Z,9.73
2022-11-28T06:13:05.468Z,10.23
2022-11-28T06:15:37.600Z,10.50
2022-11-28T06:18:04.652Z,9.98
2022-11-28T06:20:31.127Z,10.40
2022-11-28T06:22:57.727Z,10.52
2022-11-28T06:25:24.509Z,10.90
2022-11-28T06:27:51.020Z,10.57
2022-11-28T06:30:17.556Z,10.25
2022-11-28T06:32:44.042Z,10.43
2022-11-28T06:35:10.622Z,10.60
2022-11-28T06:37:37.294Z,10.73
2022-11-28T06:40:04.872Z,10.98
2022-11-28T06:42:31.399Z,10.25
2022-11-28T06:44:57.898Z,10.77
2022-11-28T06:47:24.370Z,10.52
2022-11-28T06:49:50.841Z,10.15
2022-11-28T06:52:17.362Z,10.80
2022-11-28T06:54:44.547Z,11.02
2022-11-28T06:57:11.341Z,11.80
2022-11-28T06:59:37.930Z,10.73
2022-11-28T07:02:07.754Z,11.25
2022-11-28T07:04:34.354Z,11.23
2022-11-28T07:07:00.891Z,11.40
2022-11-28T07:09:27.490Z,11.52
2022-11-28T07:11:53.997Z,11.75
2022-11-28T07:14:20.523Z,12.18
2022-11-28T07:16:49.019Z,12.15
2022-11-28T07:19:15.914Z,11.52
2022-11-28T07:21:42.428Z,12.50
2022-11-28T07:24:08.943Z,12.13
2022-11-28T07:26:37.780Z,11.73
2022-11-28T07:29:06.781Z,11.40
2022-11-28T07:31:33.724Z,11.55
2022-11-28T07:34:02.246Z,12.25
2022-11-28T07:36:30.247Z,13.27
2022-11-28T07:38:59.417Z,12.77
2022-11-28T07:41:27.328Z,12.65
2022-11-28T07:43:56.503Z,12.75
2022-11-28T07:46:24.237Z,12.02
2022-11-28T07:48:51.065Z,12.60
2022-11-28T07:51:23.295Z,12.60
2022-11-28T07:53:49.963Z,12.38
2022-11-28T07:56:20.454Z,12.38
2022-11-28T07:58:47.952Z,12.07
2022-11-28T08:01:23.379Z,12.50
2022-11-28T08:03:50.886Z,11.88
2022-11-28T08:06:19.862Z,12.45
2022-11-28T08:08:47.225Z,13.10
2022-11-28T08:11:15.779Z,13.15
2022-11-28T08:13:42.685Z,12.85
2022-11-28T08:16:13.969Z,13.27
2022-11-28T08:18:41.278Z,12.35
2022-11-28T08:21:28.887Z,12.88
2022-11-28T08:23:58.276Z,13.00
2022-11-28T08:26:30.349Z,13.15
2022-11-28T08:28:58.015Z,13.45
2022-11-28T08:31:28.143Z,13.30
2022-11-28T08:33:56.396Z,13.18
2022-11-28T08:36:23.091Z,13.73
2022-11-28T08:39:03.567Z,13.20
2022-11-28T08:41:36.574Z,12.80
2022-11-28T08:44:03.144Z,13.32
2022-11-28T08:46:29.749Z,13.23
2022-11-28T08:48:56.347Z,13.48
2022-11-28T08:51:23.947Z,13.45
2022-11-28T08:53:54.929Z,13.65
2022-11-28T08:56:24.561Z,13.10
2022-11-28T08:58:51.101Z,13.45
2022-11-28T09:01:21.028Z,13.90
2022-11-28T09:03:48.162Z,13.93
2022-11-28T09:06:16.316Z,14.55
2022-11-28T09:08:43.603Z,13.63
2022-11-28T09:11:12.041Z,14.57
2022-11-28T09:13:39.049Z,15.73
2022-11-28T09:16:06.325Z,14.90
2022-11-28T09:18:32.892Z,15.77
2022-11-28T09:21:05.413Z,16.00
2022-11-28T09:23:31.943Z,15.43
2022-11-28T09:25:58.449Z,15.82
2022-11-28T09:28:28.607Z,16.80
2022-11-28T09:31:03.346Z,15.30
2022-11-28T09:33:30.465Z,16.17
2022-11-28T09:35:58.215Z,16.23
2022-11-28T09:38:25.632Z,16.83
2022-11-28T09:40:52.610Z,16.13
2022-11-28T09:43:31.190Z,15.75
2022-11-28T09:46:01.938Z,15.45
2022-11-28T09:49:03.066Z,16.20
2022-11-28T09:51:44.224Z,14.65
2022-11-28T09:54:35.164Z,14.10
2022-11-28T09:57:08.650Z,14.40
2022-11-28T09:59:36.178Z,13.77
2022-11-28T10:02:21.235Z,14.25
2022-11-28T10:05:04.804Z,14.10
2022-11-28T10:08:05.811Z,13.98
2022-11-28T10:10:50.294Z,13.32
2022-11-28T10:14:07.227Z,13.13
2022-11-28T10:16:47.629Z,13.27
2022-11-28T10:19:52.250Z,13.85
2022-11-28T10:22:11.532Z,13.93
2022-11-28T10:24:43.535Z,13.70
2022-11-28T10:27:14.265Z,14.13
2022-11-28T10:29:50.158Z,14.65
2022-11-28T10:32:19.898Z,15.68
2022-11-28T10:35:30.562Z,16.10
2022-11-28T10:37:57.127Z,16.10
2022-11-28T10:40:23.588Z,15.65
2022-11-28T10:43:00.777Z,16.75
2022-11-28T10:45:57.128Z,16.88
2022-11-28T10:48:45.586Z,17.20
2022-11-28T10:51:17.861Z,17.55
2022-11-28T10:53:57.130Z,18.48
2022-11-28T10:56:51.175Z,18.70
2022-11-28T10:59:31.993Z,18.52
2022-11-28T11:02:00.655Z,18.85
2022-11-28T11:04:28.106Z,19.95
2022-11-28T11:07:29.076Z,20.30
2022-11-28T11:10:16.404Z,20.67
2022-11-28T11:12:44.131Z,20.85
2022-11-28T11:15:21.966Z,21.75
2022-11-28T11:17:50.709Z,22.63
2022-11-28T11:20:27.902Z,21.50
2022-11-28T11:23:00.382Z,20.50
2022-11-28T11:25:32.575Z,23.40
2022-11-28T11:28:02.425Z,23.83
2022-11-28T11:30:33.477Z,23.67
2022-11-28T11:33:03.522Z,23.92
2022-11-28T11:35:35.834Z,24.85
2022-11-28T11:38:20.538Z,26.85
2022-11-28T11:40:51.091Z,26.75
2022-11-28T11:43:28.685Z,26.95
2022-11-28T11:46:09.054Z,28.27
2022-11-28T11:48:47.196Z,29.33
2022-11-28T11:51:36.468Z,30.23
2022-11-28T11:54:14.644Z,31.25
2022-11-28T11:56:46.022Z,32.50
2022-11-28T11:59:36.302Z,31.80
2022-11-28T12:02:15.168Z,31.67
2022-11-28T12:04:49.958Z,33.00
2022-11-28T12:07:31.853Z,33.53
2022-11-28T12:10:04.162Z,35.60
2022-11-28T12:12:36.047Z,34.13
2022-11-28T12:15:02.792Z,34.97
2022-11-28T12:18:03.699Z,34.72
2022-11-28T12:20:57.633Z,35.53
2022-11-28T12:23:26.988Z,34.45
2022-11-28T12:26:09.029Z,37.38
2022-11-28T12:31:55.653Z,34.88
2022-11-28T12:34:43.862Z,39.97
2022-11-28T12:37:33.020Z,37.75
2022-11-28T12:40:35.555Z,39.55
2022-11-28T12:43:16.852Z,40.08
2022-11-28T12:45:55.607Z,41.63
2022-11-28T12:48:24.730Z,40.85
2022-11-28T12:51:12.551Z,42.67
2022-11-28T12:54:05.088Z,42.45
2022-11-28T12:56:56.660Z,42.33
2022-11-28T12:59:55.261Z,42.85
2022-11-28T13:02:32.285Z,43.35
2022-11-28T13:05:14.663Z,42.03
2022-11-28T13:08:05.668Z,42.67
2022-11-28T13:10:45.311Z,43.35
2022-11-28T13:13:23.773Z,43.80
2022-11-28T13:16:15.879Z,45.03
2022-11-28T13:21:29.736Z,43.15
2022-11-28T13:24:06.610Z,43.70
2022-11-28T13:26:33.652Z,42.53
2022-11-28T13:29:23.648Z,43.15
2022-11-28T13:32:02.304Z,44.50
2022-11-28T13:34:30.088Z,44.83
2022-11-28T13:40:13.080Z,43.38
2022-11-28T13:43:04.459Z,42.78
2022-11-28T13:45:42.328Z,42.45
2022-11-28T13:48:57.631Z,43.42
2022-11-28T13:51:30.589Z,45.00
2022-11-28T13:54:20.154Z,42.28
2022-11-28T13:57:08.044Z,42.00
2022-11-28T13:59:35.245Z,42.20
2022-11-28T14:02:04.774Z,42.58
2022-11-28T14:04:32.785Z,41.80
2022-11-28T14:07:07.027Z,43.22
2022-11-28T14:09:52.755Z,43.50
2022-11-28T14:12:44.170Z,44.60
2022-11-28T14:18:31.542Z,44.63
2022-11-28T14:21:05.345Z,43.83
2022-11-28T14:23:47.782Z,43.63
2022-11-28T14:26:38.445Z,42.28
2022-11-28T14:29:18.554Z,42.78
2022-11-28T14:32:00.638Z,43.30
2022-11-28T14:34:44.413Z,43.42
2022-11-28T14:37:31.347Z,44.38
2022-11-28T14:39:58.230Z,43.42
2022-11-28T14:42:58.805Z,43.35
2022-11-28T14:45:30.099Z,43.08
2022-11-28T14:48:14.341Z,43.22
2022-11-28T14:50:42.244Z,42.35
2022-11-28T14:53:34.615Z,42.53
2022-11-28T14:56:24.174Z,42.60
2022-11-28T14:58:55.943Z,43.63
2022-11-28T15:01:48.545Z,42.33
2022-11-28T15:04:52.559Z,42.70
2022-11-28T15:21:12.090Z,43.97
2022-11-28T15:23:38.652Z,43.47
2022-11-28T15:26:06.840Z,44.92
2022-11-28T15:28:35.536Z,43.10
2022-11-28T15:31:05.585Z,44.25
2022-11-28T15:33:32.698Z,43.20
2022-11-28T15:36:10.891Z,42.38
2022-11-28T15:38:41.262Z,43.05
2022-11-28T15:41:07.947Z,43.03
2022-11-28T15:43:37.466Z,42.67
2022-11-28T15:46:05.583Z,42.35
2022-11-28T15:48:40.190Z,42.78
2022-11-28T15:51:08.041Z,43.05
2022-11-28T15:53:40.670Z,43.63
2022-11-28T15:56:15.586Z,40.78
2022-11-28T15:58:44.122Z,41.35
2022-11-28T16:01:18.633Z,41.60
2022-11-28T16:04:00.868Z,41.88
2022-11-28T16:06:34.119Z,40.53
2022-11-28T16:09:06.332Z,41.08
2022-11-28T16:11:35.313Z,41.38
2022-11-28T16:14:09.064Z,40.83
2022-11-28T16:16:38.115Z,40.45
2022-11-28T16:19:08.142Z,40.53
2022-11-28T16:21:55.162Z,40.75
2022-11-28T16:24:36.898Z,38.45
2022-11-28T16:27:06.303Z,40.95
2022-11-28T16:29:35.702Z,40.05
2022-11-28T16:32:34.513Z,39.60
2022-11-28T16:35:03.271Z,38.78
2022-11-28T16:37:31.668Z,39.22
2022-11-28T16:40:13.025Z,37.95
2022-11-28T16:42:40.229Z,39.00
2022-11-28T16:45:15.806Z,36.60
2022-11-28T16:47:43.319Z,37.08
2022-11-28T16:50:14.197Z,36.35
2022-11-28T16:52:46.761Z,35.67
2022-11-28T16:55:28.462Z,36.30
2022-11-28T16:58:08.691Z,36.35
2022-11-28T17:00:36.716Z,35.35
2022-11-28T17:03:08.059Z,37.10
2022-11-28T17:05:36.833Z,35.17
2022-11-28T17:08:03.721Z,35.40
2022-11-28T17:10:30.232Z,34.50
2022-11-28T17:12:56.815Z,34.95
2022-11-28T17:15:23.593Z,34.95
2022-11-28T17:17:50.133Z,33.70
2022-11-28T17:20:17.762Z,33.90
2022-11-28T17:22:47.618Z,34.20
2022-11-28T17:25:19.725Z,34.30
2022-11-28T17:27:48.112Z,34.22
2022-11-28T17:30:16.390Z,35.67
2022-11-28T17:32:43.565Z,35.05
2022-11-28T17:35:18.562Z,34.78
2022-11-28T17:37:45.025Z,35.00
2022-11-28T17:40:30.341Z,35.55
2022-11-28T17:42:56.892Z,34.28
2022-11-28T17:45:24.563Z,35.75
2022-11-28T17:47:51.273Z,35.92
2022-11-28T17:50:17.774Z,34.80
2022-11-28T17:52:44.279Z,35.08
2022-11-28T17:55:11.091Z,34.97
2022-11-28T17:57:37.676Z,33.78
2022-11-28T18:00:06.553Z,33.58
2022-11-28T18:02:40.810Z,33.15
2022-11-28T18:05:09.187Z,33.38
2022-11-28T18:07:35.809Z,32.05
2022-11-28T18:10:02.483Z,31.77
2022-11-28T18:12:29.085Z,31.15
2022-11-28T18:14:55.650Z,29.10
2022-11-28T18:17:22.140Z,28.48
2022-11-28T18:19:52.059Z,28.73
2022-11-28T18:22:21.005Z,27.67
2022-11-28T18:24:47.755Z,27.10
2022-11-28T18:27:14.309Z,26.90
2022-11-28T18:29:41.188Z,25.40
2022-11-28T18:32:08.000Z,27.20
2022-11-28T18:34:34.517Z,25.13
2022-11-28T18:37:01.114Z,25.50
2022-11-28T18:39:31.247Z,26.13
2022-11-28T18:41:59.917Z,25.70
2022-11-28T18:44:27.908Z,26.05
2022-11-28T18:46:54.431Z,26.30
2022-11-28T18:49:20.920Z,25.80
2022-11-28T18:51:48.453Z,26.23
2022-11-28T18:54:20.525Z,26.63
2022-11-28T18:56:48.030Z,26.58
2022-11-28T18:59:14.934Z,27.33
2022-11-28T19:01:41.548Z,27.42
2022-11-28T19:04:11.416Z,28.60
2022-11-28T19:06:40.136Z,27.95
2022-11-28T19:09:10.643Z,27.38
2022-11-28T19:11:37.170Z,27.90
2022-11-28T19:14:04.048Z,28.25
2022-11-28T19:16:33.027Z,27.02
2022-11-28T19:19:01.714Z,27.70
2022-11-28T19:21:31.590Z,28.08
2022-11-28T19:23:59.283Z,26.52
2022-11-28T19:26:28.926Z,27.15
2022-11-28T19:28:56.236Z,27.35
2022-11-28T19:31:26.901Z,27.40
2022-11-28T19:34:02.203Z,29.27
2022-11-28T19:36:37.188Z,27.98
2022-11-28T19:39:04.481Z,29.58
2022-11-28T19:41:32.259Z,28.13
2022-11-28T19:43:59.322Z,28.73
2022-11-28T19:46:35.053Z,28.42
2022-11-28T19:49:07.948Z,29.90
2022-11-28T19:51:34.986Z,28.42
2022-11-28T19:54:03.904Z,27.15
2022-11-28T19:56:32.240Z,27.70
2022-11-28T19:58:59.322Z,25.67
2022-11-28T20:01:26.009Z,26.27
2022-11-28T20:03:53.768Z,25.77
2022-11-28T20:06:24.032Z,26.05
2022-11-28T20:08:52.375Z,23.67
2022-11-28T20:11:26.639Z,24.25
2022-11-28T20:14:00.893Z,24.13
2022-11-28T20:16:30.962Z,26.02
2022-11-28T20:19:00.448Z,25.35
2022-11-28T20:21:28.588Z,24.15
2022-11-28T20:23:59.401Z,25.33
2022-11-28T20:26:26.872Z,27.52
2022-11-28T20:28:56.019Z,25.15
2022-11-28T20:31:27.512Z,29.17
2022-11-28T20:33:54.835Z,27.20
2022-11-28T20:36:24.412Z,28.85
2022-11-28T20:38:53.284Z,31.25
2022-11-28T20:41:21.269Z,29.85
2022-11-28T20:43:48.421Z,32.97
2022-11-28T20:46:18.274Z,30.52
2022-11-28T20:48:45.295Z,29.27
2022-11-28T20:51:16.593Z,28.10
2022-11-28T20:53:43.389Z,26.58
2022-11-28T20:56:13.410Z,28.48
2022-11-28T20:58:40.246Z,28.63
2022-11-28T21:01:07.255Z,27.65
2022-11-28T21:03:34.429Z,27.90
2022-11-28T21:06:01.586Z,28.55
2022-11-28T21:08:31.322Z,27.52
2022-11-28T21:10:57.906Z,28.58
2022-11-28T21:13:24.517Z,27.00
2022-11-28T21:15:53.342Z,28.30
2022-11-28T21:18:19.846Z,27.65
2022-11-28T21:20:46.663Z,30.33
2022-11-28T21:23:15.934Z,30.67
2022-11-28T21:25:44.157Z,31.00
2022-11-28T21:28:11.701Z,30.92
2022-11-28T21:30:45.092Z,30.85
2022-11-28T21:33:12.515Z,30.55
2022-11-28T21:35:39.829Z,29.13
2022-11-28T21:38:07.139Z,28.80
2022-11-28T21:40:33.770Z,28.13
2022-11-28T21:43:00.319Z,27.42
2022-11-28T21:45:27.576Z,28.75
2022-11-28T21:47:54.691Z,29.73
2022-11-28T21:50:22.221Z,27.95
2022-11-28T21:52:48.698Z,26.70
2022-11-28T21:55:15.393Z,28.23
2022-11-28T21:57:42.216Z,28.20
2022-11-28T22:00:20.752Z,28.40
2022-11-28T22:03:02.926Z,29.05
2022-11-28T22:05:43.711Z,30.50
2022-11-28T22:08:10.770Z,28.38
2022-11-28T22:10:37.694Z,30.75
2022-11-28T22:13:04.289Z,29.75
2022-11-28T22:15:30.885Z,29.50
2022-11-28T22:17:57.379Z,29.40
2022-11-28T22:20:23.923Z,31.25
2022-11-28T22:22:50.394Z,30.70
2022-11-28T22:25:17.294Z,31.20
2022-11-28T22:27:43.860Z,28.40
2022-11-28T22:30:10.821Z,29.25
2022-11-28T22:32:37.353Z,28.33
2022-11-28T22:35:04.315Z,29.35
2022-11-28T22:37:31.655Z,30.98
2022-11-28T22:39:58.164Z,29.95
2022-11-28T22:42:25.163Z,29.40
2022-11-28T22:44:52.003Z,30.58
2022-11-28T22:47:18.609Z,31.58
2022-11-28T22:49:45.421Z,30.17
2022-11-28T22:52:12.814Z,31.38
2022-11-28T22:54:39.548Z,29.13
2022-11-28T22:57:06.274Z,31.77
2022-11-28T22:59:35.147Z,29.88
2022-11-28T23:02:02.703Z,29.42
2022-11-28T23:04:29.303Z,30.88
2022-11-28T23:06:55.860Z,30.25
2022-11-28T23:09:22.363Z,31.70
2022-11-28T23:11:49.856Z,30.92
2022-11-28T23:14:17.365Z,32.40
2022-11-28T23:16:44.352Z,30.38
2022-11-28T23:19:16.372Z,32.63
2022-11-28T23:21:45.274Z,29.05
2022-11-28T23:24:18.579Z,28.38
2022-11-28T23:26:46.700Z,29.02
2022-11-28T23:29:14.421Z,27.85
2022-11-28T23:31:42.328Z,27.15
2022-11-28T23:34:10.058Z,26.85
2022-11-28T23:36:42.633Z,27.20
2022-11-28T23:39:13.313Z,26.13
2022-11-28T23:41:40.230Z,27.85
2022-11-28T23:44:06.809Z,27.20
2022-11-28T23:46:34.443Z,27.85
2022-11-28T23:49:00.931Z,29.17
2022-11-28T23:51:27.469Z,27.13
2022-11-28T23:53:54.224Z,28.88
2022-11-28T23:56:24.115Z,29.83
2022-11-28T23:58:51.415Z,26.77
